Adams, Kentucky
Current Conditions -  °F | °C
As of 2:55 AM on Friday 24 Oct 2014 (Local Time) from KSJS Reporting Station
Clear Clear  
Wind Chill:   Ceiling: Unl
Heat Index:   Visibility: 10mi
Dew Point:   Wind: 3mph
Humidity: 94%   Direction: 200°SSW
Pressure: 30.12"   Gusts: NA
Location:  38.05°N, 82.71°W
Report Text: KSJS 240655Z AUTO 20003KT 10SM CLR 06/05 A3012 RMK AO2 T00630054
Loading
Personal Weather Stations






























Interactive Weather Map
Tropical Storm Tracking
New forecast layout! Learn more

10-Day Weather Forecast

Advertisements
Track Severe Weather on mobile